Stations météo

réclame
Mon MeteoGroup
Leuchtturm Kiel, Allemagne (10044): Température de l'air & dewpoint: 12.06.2018 03:00:00 - 18.06.2018 03:00:00 (CEST)Leuchtturm Kiel, Allemagne (10044): Vitesse du vent & gusts: 12.06.2018 03:00:00 - 18.06.2018 03:00:00 (CEST)Leuchtturm Kiel, Allemagne (10044): Direction du vent: 12.06.2018 03:00:00 - 18.06.2018 03:00:00 (CEST)Leuchtturm Kiel, Allemagne (10044): reduced air pressure: 12.06.2018 03:00:00 - 18.06.2018 03:00:00 (CEST)Leuchtturm Kiel, Allemagne (10044): Ensoleillement: 12.06.2018 03:00:00 - 18.06.2018 03:00:00 (CEST)
Date & Time tt [°C] td [°C] ff [km/h] ff [knt] fx [km/h] fx [knt] dd ppp [hPa] sd [min]
18.06.2018 03:00:00 14,4 11,5 18 10 - - SW 1017,8 0
18.06.2018 02:00:00 14,7 11,5 18 10 - - SW 1017,7 0
18.06.2018 01:00:00 15,1 11,4 18 10 - - SW 1017,4 0
18.06.2018 00:00:00 15,5 11,2 18 10 - - SW 1017,2 0
17.06.2018 23:00:00 16,0 10,6 18 10 - - SW 1017,0 0
17.06.2018 22:00:00 16,5 9,6 25 14 - - WSW 1016,7 18
17.06.2018 21:00:00 17,0 9,4 29 16 - - W 1016,3 12
17.06.2018 20:00:00 17,5 7,4 29 16 - - WSW 1015,9 36
17.06.2018 19:00:00 17,7 8,3 32 18 - - WSW 1015,6 0
17.06.2018 18:00:00 17,7 9,7 32 18 - - WSW 1015,4 60
17.06.2018 17:00:00 18,0 8,9 32 18 - - WSW 1015,0 54
17.06.2018 16:00:00 17,3 11,0 36 19 - - W 1014,5 0
17.06.2018 15:00:00 16,8 13,0 25 14 - - SW 1014,2 30
17.06.2018 14:00:00 17,7 11,6 36 19 - - SW 1013,7 18
17.06.2018 13:00:00 17,7 11,9 36 19 50 27 SW 1013,3 42
17.06.2018 12:00:00 17,5 11,5 36 19 - - SW 1013,1 12
17.06.2018 11:00:00 17,3 11,0 32 18 - - SW 1012,9 36
17.06.2018 10:00:00 16,5 11,0 32 18 - - SW 1012,9 42
17.06.2018 09:00:00 16,4 12,1 32 18 - - SW 1012,7 60
17.06.2018 08:00:00 16,0 13,4 29 16 - - SSW 1012,7 30
17.06.2018 07:00:00 15,8 13,7 18 10 - - SSW 1012,8 0
17.06.2018 06:00:00 15,6 13,0 18 10 - - SSW 1012,8 0
17.06.2018 05:00:00 16,0 13,1 18 10 - - WSW 1012,9 0
17.06.2018 04:00:00 15,9 13,2 18 10 - - W 1013,0 0
17.06.2018 03:00:00 15,7 14,0 29 16 - - W 1013,0 0
17.06.2018 02:00:00 17,6 16,0 14 8 - - SW 1013,0 0
17.06.2018 01:00:00 18,4 14,9 7 4 - - S 1012,5 0
17.06.2018 00:00:00 18,5 14,5 7 4 - - SSW 1013,0 0
16.06.2018 23:00:00 18,6 13,6 7 4 - - S 1013,3 0
16.06.2018 22:00:00 18,8 13,5 7 4 - - SE 1013,4 0
16.06.2018 21:00:00 18,4 13,6 4 2 - - NNE 1013,0 0
16.06.2018 20:00:00 18,8 13,2 11 6 - - WNW 1013,0 0
16.06.2018 19:00:00 18,2 14,0 14 8 58 31 SE 1012,4 0
16.06.2018 18:00:00 18,8 14,4 11 6 - - NE 1012,4 24
16.06.2018 17:00:00 19,3 13,5 18 10 - - SSE 1012,9 18
16.06.2018 16:00:00 19,0 15,3 29 16 - - E 1013,2 0
16.06.2018 15:00:00 18,4 15,4 29 16 50 27 E 1013,4 0
16.06.2018 14:00:00 17,7 15,5 32 18 - - ESE 1014,4 18
16.06.2018 13:00:00 18,1 15,3 36 19 - - E 1014,2 60
16.06.2018 12:00:00 18,0 14,5 29 16 - - E 1015,0 12
16.06.2018 11:00:00 17,5 13,5 32 18 - - E 1015,3 0
16.06.2018 10:00:00 17,2 12,8 36 19 - - ESE 1015,6 12
16.06.2018 09:00:00 17,4 12,0 32 18 - - ESE 1015,9 36
16.06.2018 08:00:00 17,4 12,3 32 18 - - E 1016,0 0
16.06.2018 07:00:00 17,4 11,7 29 16 - - E 1016,2 0
16.06.2018 06:00:00 17,3 10,0 11 6 - - NE 1016,8 0
16.06.2018 05:00:00 17,3 7,6 11 6 - - SSE 1017,3 0
16.06.2018 04:00:00 17,3 9,9 14 8 - - SE 1017,3 0
16.06.2018 03:00:00 17,2 8,2 18 10 - - ESE 1017,1 0
16.06.2018 02:00:00 17,0 9,1 14 8 - - SE 1017,3 0
16.06.2018 01:00:00 16,7 9,8 18 10 - - SSE 1017,3 0
16.06.2018 00:00:00 17,3 10,5 14 8 - - SE 1017,4 0
15.06.2018 23:00:00 17,7 9,1 14 8 - - SE 1017,5 0
15.06.2018 22:00:00 17,6 9,7 14 8 - - ESE 1017,5 0
15.06.2018 21:00:00 17,6 10,6 11 6 - - ESE 1017,5 54
15.06.2018 20:00:00 17,7 9,6 11 6 - - E 1017,6 60
15.06.2018 19:00:00 17,6 9,4 11 6 - - E 1017,6 48
15.06.2018 18:00:00 17,5 10,3 11 6 - - E 1017,7 18
15.06.2018 17:00:00 17,3 9,5 14 8 - - E 1017,6 36
15.06.2018 16:00:00 17,5 9,1 14 8 - - ENE 1017,6 30
15.06.2018 15:00:00 18,2 9,3 7 4 - - NE 1017,5 30
15.06.2018 14:00:00 20,3 9,1 4 2 - - NNW 1017,5 54
15.06.2018 13:00:00 17,9 7,9 7 4 - - W 1017,6 60
15.06.2018 12:00:00 16,9 7,0 11 6 - - W 1017,5 60
15.06.2018 11:00:00 16,3 9,5 14 8 - - W 1017,3 60
15.06.2018 10:00:00 15,6 9,2 14 8 - - W 1017,1 60
15.06.2018 09:00:00 15,1 9,4 14 8 - - W 1016,7 60
15.06.2018 08:00:00 14,7 10,4 14 8 - - WSW 1016,2 60
15.06.2018 07:00:00 14,1 11,2 14 8 - - WSW 1015,7 60
15.06.2018 06:00:00 13,7 12,1 18 10 - - SW 1015,2 0
15.06.2018 05:00:00 13,9 12,5 18 10 - - SW 1014,6 0
15.06.2018 04:00:00 14,2 13,1 22 12 - - SW 1014,4 0
15.06.2018 03:00:00 15,2 12,3 25 14 - - W 1014,1 0
15.06.2018 02:00:00 15,2 12,6 29 16 - - W 1013,7 0
15.06.2018 01:00:00 15,5 13,2 36 19 - - W 1013,3 0
15.06.2018 00:00:00 15,3 14,1 29 16 47 25 SW 1013,0 0
14.06.2018 23:00:00 15,7 13,2 32 18 - - SW 1012,6 0
14.06.2018 22:00:00 16,1 13,2 36 19 47 25 SSW 1012,4 0
14.06.2018 21:00:00 15,8 13,1 29 16 - - SW 1012,3 0
14.06.2018 20:00:00 15,7 13,1 32 18 - - SW 1012,3 0
14.06.2018 19:00:00 17,1 11,5 40 21 54 29 WSW 1011,9 0
14.06.2018 18:00:00 20,5 8,1 36 19 47 25 SSW 1010,9 6
14.06.2018 17:00:00 20,1 9,2 36 19 - - SSW 1011,1 12
14.06.2018 16:00:00 19,8 9,5 32 18 47 25 SSW 1011,3 36
14.06.2018 15:00:00 19,5 9,1 36 19 - - S 1011,5 18
14.06.2018 14:00:00 19,1 9,0 36 19 - - S 1012,0 36
14.06.2018 13:00:00 18,4 10,3 32 18 - - SSW 1012,4 60
14.06.2018 12:00:00 17,3 9,8 32 18 - - SSW 1012,8 60
14.06.2018 11:00:00 16,8 9,7 32 18 - - SSW 1013,1 60
14.06.2018 10:00:00 15,7 10,4 36 19 - - SSW 1013,3 30
14.06.2018 09:00:00 14,7 9,8 32 18 - - SSW 1013,4 42
14.06.2018 08:00:00 13,7 10,6 32 18 - - S 1013,6 12
14.06.2018 07:00:00 13,4 10,6 29 16 - - SSW 1013,9 0
14.06.2018 06:00:00 13,2 10,4 29 16 - - SSW 1014,0 0
14.06.2018 05:00:00 13,4 9,0 25 14 - - SSW 1013,9 0
14.06.2018 04:00:00 13,2 9,7 18 10 - - SW 1014,3 0
14.06.2018 03:00:00 12,5 9,1 22 12 - - SW 1014,4 0
14.06.2018 02:00:00 12,5 8,7 22 12 - - SW 1014,5 0
14.06.2018 01:00:00 13,7 8,3 29 16 - - WSW 1014,2 0
14.06.2018 00:00:00 13,8 8,9 29 16 - - W 1014,3 0
13.06.2018 23:00:00 14,1 9,1 25 14 - - W 1014,2 0
13.06.2018 22:00:00 14,5 7,1 36 19 - - W 1014,0 0
13.06.2018 21:00:00 14,9 7,2 32 18 - - W 1013,3 0
13.06.2018 20:00:00 15,5 7,9 36 19 - - W 1013,1 6
13.06.2018 19:00:00 15,6 7,6 32 18 - - W 1012,7 0
13.06.2018 18:00:00 15,6 7,5 36 19 - - WNW 1012,4 6
13.06.2018 17:00:00 15,4 8,6 36 19 - - WNW 1012,3 0
13.06.2018 16:00:00 15,7 8,4 40 21 - - W 1011,9 6
13.06.2018 15:00:00 15,6 8,2 43 23 47 25 W 1011,6 18
13.06.2018 14:00:00 15,9 7,9 36 19 - - W 1011,4 48
13.06.2018 13:00:00 16,0 7,1 32 18 - - WNW 1011,4 48
13.06.2018 12:00:00 15,8 7,4 29 16 - - WNW 1011,3 60
13.06.2018 11:00:00 14,9 7,7 25 14 - - W 1011,2 54
13.06.2018 10:00:00 15,0 7,8 29 16 - - NW 1011,2 54
13.06.2018 09:00:00 14,2 7,7 36 19 50 27 WNW 1010,8 18
13.06.2018 08:00:00 13,1 8,5 36 19 - - WNW 1010,5 6
13.06.2018 07:00:00 12,8 8,9 36 19 54 29 WNW 1010,3 0
13.06.2018 06:00:00 12,8 9,1 36 19 47 25 WNW 1010,3 0
13.06.2018 05:00:00 12,7 9,4 32 18 - - WNW 1010,2 0
13.06.2018 04:00:00 12,7 9,1 32 18 - - WNW 1010,2 0
13.06.2018 03:00:00 13,0 9,9 32 18 - - WNW 1010,2 0
13.06.2018 02:00:00 13,0 11,2 29 16 - - W 1010,1 0
13.06.2018 01:00:00 12,8 11,4 29 16 - - W 1010,1 0
13.06.2018 00:00:00 13,3 11,5 32 18 - - W 1010,1 0
12.06.2018 23:00:00 13,5 10,9 29 16 - - W 1010,2 0
12.06.2018 22:00:00 13,8 10,7 29 16 - - W 1010,1 0
12.06.2018 21:00:00 14,1 10,1 32 18 - - W 1009,9 0
12.06.2018 20:00:00 14,3 10,3 36 19 - - W 1009,7 0
12.06.2018 19:00:00 14,5 11,1 32 18 - - W 1009,9 0
12.06.2018 18:00:00 15,2 10,3 32 18 - - W 1010,1 0
12.06.2018 17:00:00 15,2 10,3 29 16 - - W 1010,1 0
12.06.2018 16:00:00 14,9 10,2 29 16 - - W 1010,3 0
12.06.2018 15:00:00 15,3 10,3 29 16 - - W 1010,2 0
12.06.2018 14:00:00 14,7 10,2 29 16 - - W 1010,4 0
12.06.2018 13:00:00 14,6 10,7 25 14 - - W 1010,3 0
12.06.2018 12:00:00 14,4 10,3 22 12 - - W 1010,1 0
12.06.2018 11:00:00 14,1 10,1 25 14 - - WNW 1009,9 0
12.06.2018 10:00:00 13,8 9,5 32 18 - - W 1009,7 0
12.06.2018 09:00:00 13,6 9,4 29 16 47 25 W 1009,7 0
12.06.2018 08:00:00 13,7 9,5 32 18 - - W 1009,4 0
12.06.2018 07:00:00 13,7 8,9 36 19 47 25 W 1009,2 0
12.06.2018 06:00:00 14,0 9,2 36 19 47 25 WNW 1009,0 0
12.06.2018 05:00:00 13,8 10,3 40 21 - - W 1008,8 0
12.06.2018 04:00:00 13,9 9,9 29 16 47 25 W 1009,3 0
12.06.2018 03:00:00 13,8 9,1 32 18 - - W 1009,3 0

tt = Température de l'air
td = dewpoint
ff = Vitesse du vent
fx = gusts
dd = Direction du vent
ppp = reduced air pressure
sd = Ensoleillement

stations d'obs. à proximité